Nashville, TN (37210)

11:31 AM CST on March 01, 2015 (GMT -0600)
APRSWXNET Nashville TN US | Change Station
CLOSE
Current Station
Personal Weather Station
Location: Nashville, TN
Elevation: 728 ft
Nearby Weather Stations

Elev 728 ft 36.14 °N, 86.80 °W | Updated 31 minutes ago

Overcast
Overcast
50 °F
Feels Like 47 °F
N
7
Wind Variable Wind from South
Gusts 10.0 mph

Today
High -- | Low -- °F
--% Chance of Precip.
Yesterday
High -- | Low -- °F
Precip. -- in
6:17 AM 5:41 PM
Waxing Gibbous, 86% visible
Pressure 30.39 in
Visibility 10.0 miles
Clouds Mostly Cloudy 1600 ft
Overcast 4700 ft
Windchill 47 °F
Dew Point 44 °F
Humidity 81%
Rainfall 0.00 in
Snow Depth Not available.
UV 2 out of 12
Pollen 4.70 out of 12
Air Quality Not available.
Flu Activity Not available.
METAR KBNA 011653Z 21005KT 10SM BKN016 OVC047 10/07 A3039

More Conditions Fewer Conditions

Pressure 30.39 in
Visibility 10.0 miles
Clouds Mostly Cloudy 1600 ft
Overcast 4700 ft
Windchill 47 °F
Dew Point 44 °F
Humidity 81%
Rainfall 0.00 in
Snow Depth Not available.
UV 2 out of 12
Pollen 4.70 out of 12
Air Quality Not available.
Flu Activity Not available.
METAR KBNA 011653Z 21005KT 10SM BKN016 OVC047 10/07 A3039

More Conditions Fewer Conditions

10-Day Weather Forecast

Almanac

Astronomy

Mar. 01, 2015 Rise Set
Actual Time
Civil Twilight
Nautical Twilight
Astronomical Twilight
Moon
Length of Visible Light
Length of Day
Tomorrow will be .
, % of the Moon is Illuminated

Today's Extremes

State Highs State Lows

Community

WunderPhotos

Upload Photos

1,801,478 photos uploaded!

WunderBlogs® & News

Nearby

Air Quality

  Air Quality AQ Index Pollutant
Not available.

Snow Depth

Station Depth Elevation

Earthquake Activity

City Distance Mag. Time & Date
Minimum magnitude displayed is 2.5.

Coastal Water Temperatures

Place Temperature

Nearby Weather Stations